sensor_id;sensor_type;location;lat;lon;timestamp;temperature;humidity
55135;DHT22;41031;44.750;11.308;2023-04-12T00:02:19;11.90;84.20
55135;DHT22;41031;44.750;11.308;2023-04-12T00:04:46;11.80;84.10
55135;DHT22;41031;44.750;11.308;2023-04-12T00:07:22;11.80;84.40
55135;DHT22;41031;44.750;11.308;2023-04-12T00:09:50;11.80;84.60
55135;DHT22;41031;44.750;11.308;2023-04-12T00:12:17;11.90;84.80
55135;DHT22;41031;44.750;11.308;2023-04-12T00:14:45;11.90;85.00
55135;DHT22;41031;44.750;11.308;2023-04-12T00:17:12;11.90;84.90
55135;DHT22;41031;44.750;11.308;2023-04-12T00:19:39;11.90;85.00
55135;DHT22;41031;44.750;11.308;2023-04-12T00:22:10;12.00;85.10
55135;DHT22;41031;44.750;11.308;2023-04-12T00:24:38;12.00;85.30
55135;DHT22;41031;44.750;11.308;2023-04-12T00:27:06;12.00;85.30
55135;DHT22;41031;44.750;11.308;2023-04-12T00:29:35;12.00;85.30
55135;DHT22;41031;44.750;11.308;2023-04-12T00:32:02;12.10;85.30
55135;DHT22;41031;44.750;11.308;2023-04-12T00:34:31;12.10;85.10
55135;DHT22;41031;44.750;11.308;2023-04-12T00:36:59;12.10;85.60
55135;DHT22;41031;44.750;11.308;2023-04-12T00:39:27;12.10;85.00
55135;DHT22;41031;44.750;11.308;2023-04-12T00:41:56;12.10;85.20
55135;DHT22;41031;44.750;11.308;2023-04-12T00:44:23;12.10;85.50
55135;DHT22;41031;44.750;11.308;2023-04-12T00:46:50;12.10;85.90
55135;DHT22;41031;44.750;11.308;2023-04-12T00:49:17;12.20;86.30
55135;DHT22;41031;44.750;11.308;2023-04-12T00:51:44;12.20;86.70
55135;DHT22;41031;44.750;11.308;2023-04-12T00:54:13;12.20;87.40
55135;DHT22;41031;44.750;11.308;2023-04-12T00:56:40;12.20;88.00
55135;DHT22;41031;44.750;11.308;2023-04-12T00:59:07;12.20;88.40
55135;DHT22;41031;44.750;11.308;2023-04-12T01:01:34;12.20;89.00
55135;DHT22;41031;44.750;11.308;2023-04-12T01:04:04;12.10;89.40
55135;DHT22;41031;44.750;11.308;2023-04-12T01:06:47;12.20;89.80
55135;DHT22;41031;44.750;11.308;2023-04-12T01:09:30;12.10;90.10
55135;DHT22;41031;44.750;11.308;2023-04-12T01:15:05;12.00;90.40
55135;DHT22;41031;44.750;11.308;2023-04-12T01:17:38;12.00;90.50
55135;DHT22;41031;44.750;11.308;2023-04-12T01:20:19;12.00;90.60
55135;DHT22;41031;44.750;11.308;2023-04-12T01:23:13;11.90;90.70
55135;DHT22;41031;44.750;11.308;2023-04-12T01:28:22;11.90;91.20
55135;DHT22;41031;44.750;11.308;2023-04-12T01:30:52;11.80;91.40
55135;DHT22;41031;44.750;11.308;2023-04-12T01:33:21;11.80;91.70
55135;DHT22;41031;44.750;11.308;2023-04-12T01:35:50;11.70;91.70
55135;DHT22;41031;44.750;11.308;2023-04-12T01:38:19;11.70;91.80
55135;DHT22;41031;44.750;11.308;2023-04-12T01:40:47;11.70;91.90
55135;DHT22;41031;44.750;11.308;2023-04-12T01:43:14;11.70;92.20
55135;DHT22;41031;44.750;11.308;2023-04-12T01:45:41;11.70;92.30
55135;DHT22;41031;44.750;11.308;2023-04-12T01:48:10;11.60;92.40
55135;DHT22;41031;44.750;11.308;2023-04-12T01:53:59;11.60;92.60
55135;DHT22;41031;44.750;11.308;2023-04-12T01:56:30;11.60;92.70
55135;DHT22;41031;44.750;11.308;2023-04-12T01:59:01;11.60;92.70
55135;DHT22;41031;44.750;11.308;2023-04-12T02:01:30;11.60;92.50
55135;DHT22;41031;44.750;11.308;2023-04-12T02:03:58;11.60;92.50
55135;DHT22;41031;44.750;11.308;2023-04-12T02:06:27;11.60;92.40
55135;DHT22;41031;44.750;11.308;2023-04-12T02:09:00;11.70;92.40
55135;DHT22;41031;44.750;11.308;2023-04-12T02:11:28;11.70;92.40
55135;DHT22;41031;44.750;11.308;2023-04-12T02:13:55;11.70;92.50
55135;DHT22;41031;44.750;11.308;2023-04-12T02:16:22;11.80;92.50
55135;DHT22;41031;44.750;11.308;2023-04-12T02:18:50;11.80;92.50
55135;DHT22;41031;44.750;11.308;2023-04-12T02:21:18;11.80;92.50
55135;DHT22;41031;44.750;11.308;2023-04-12T02:23:45;11.80;92.50
55135;DHT22;41031;44.750;11.308;2023-04-12T02:26:12;11.90;92.60
55135;DHT22;41031;44.750;11.308;2023-04-12T02:28:39;11.90;92.70
55135;DHT22;41031;44.750;11.308;2023-04-12T02:31:10;11.90;92.70
55135;DHT22;41031;44.750;11.308;2023-04-12T02:33:39;12.00;92.80
55135;DHT22;41031;44.750;11.308;2023-04-12T02:36:09;12.00;92.70
55135;DHT22;41031;44.750;11.308;2023-04-12T02:38:38;12.10;92.70
55135;DHT22;41031;44.750;11.308;2023-04-12T02:41:06;12.10;92.60
55135;DHT22;41031;44.750;11.308;2023-04-12T02:43:34;12.10;92.60
55135;DHT22;41031;44.750;11.308;2023-04-12T02:46:06;12.10;92.70
55135;DHT22;41031;44.750;11.308;2023-04-12T02:48:42;12.10;92.90
55135;DHT22;41031;44.750;11.308;2023-04-12T02:51:10;12.10;93.30
55135;DHT22;41031;44.750;11.308;2023-04-12T02:53:39;12.10;93.30
55135;DHT22;41031;44.750;11.308;2023-04-12T02:56:12;12.10;93.40
55135;DHT22;41031;44.750;11.308;2023-04-12T02:58:39;12.10;93.60
55135;DHT22;41031;44.750;11.308;2023-04-12T03:01:09;12.20;93.70
55135;DHT22;41031;44.750;11.308;2023-04-12T03:03:57;12.20;93.80
55135;DHT22;41031;44.750;11.308;2023-04-12T03:06:38;12.20;93.90
55135;DHT22;41031;44.750;11.308;2023-04-12T03:09:34;12.30;93.90
55135;DHT22;41031;44.750;11.308;2023-04-12T03:12:05;12.30;93.90
55135;DHT22;41031;44.750;11.308;2023-04-12T03:14:37;12.30;93.90
55135;DHT22;41031;44.750;11.308;2023-04-12T03:17:05;12.30;93.90
55135;DHT22;41031;44.750;11.308;2023-04-12T03:19:34;12.30;93.80
55135;DHT22;41031;44.750;11.308;2023-04-12T03:22:03;12.30;93.90
55135;DHT22;41031;44.750;11.308;2023-04-12T03:24:35;12.30;94.00
55135;DHT22;41031;44.750;11.308;2023-04-12T03:27:04;12.30;94.00
55135;DHT22;41031;44.750;11.308;2023-04-12T03:29:34;12.30;94.10
55135;DHT22;41031;44.750;11.308;2023-04-12T03:32:02;12.30;94.20
55135;DHT22;41031;44.750;11.308;2023-04-12T03:34:31;12.30;94.20
55135;DHT22;41031;44.750;11.308;2023-04-12T03:37:03;12.30;94.20
55135;DHT22;41031;44.750;11.308;2023-04-12T03:39:37;12.40;94.30
55135;DHT22;41031;44.750;11.308;2023-04-12T03:42:07;12.40;94.40
55135;DHT22;41031;44.750;11.308;2023-04-12T03:44:48;12.40;94.40
55135;DHT22;41031;44.750;11.308;2023-04-12T03:47:15;12.40;94.80
55135;DHT22;41031;44.750;11.308;2023-04-12T03:49:42;12.40;94.60
55135;DHT22;41031;44.750;11.308;2023-04-12T03:52:12;12.40;94.70
55135;DHT22;41031;44.750;11.308;2023-04-12T03:54:43;12.40;94.80
55135;DHT22;41031;44.750;11.308;2023-04-12T03:57:14;12.40;94.80
55135;DHT22;41031;44.750;11.308;2023-04-12T03:59:48;12.40;94.90
55135;DHT22;41031;44.750;11.308;2023-04-12T04:02:19;12.40;95.00
55135;DHT22;41031;44.750;11.308;2023-04-12T04:04:50;12.40;95.00
55135;DHT22;41031;44.750;11.308;2023-04-12T04:07:24;12.40;94.90
55135;DHT22;41031;44.750;11.308;2023-04-12T04:09:54;12.40;94.90
55135;DHT22;41031;44.750;11.308;2023-04-12T04:12:24;12.40;94.90
55135;DHT22;41031;44.750;11.308;2023-04-12T04:14:53;12.40;94.90
55135;DHT22;41031;44.750;11.308;2023-04-12T04:17:32;12.40;94.80
55135;DHT22;41031;44.750;11.308;2023-04-12T04:19:59;12.30;94.80
55135;DHT22;41031;44.750;11.308;2023-04-12T04:22:28;12.30;94.80
55135;DHT22;41031;44.750;11.308;2023-04-12T04:25:01;12.30;94.80
55135;DHT22;41031;44.750;11.308;2023-04-12T04:27:31;12.30;94.70
55135;DHT22;41031;44.750;11.308;2023-04-12T04:30:01;12.30;94.70
55135;DHT22;41031;44.750;11.308;2023-04-12T04:32:29;12.30;94.70
55135;DHT22;41031;44.750;11.308;2023-04-12T04:34:57;12.30;94.70
55135;DHT22;41031;44.750;11.308;2023-04-12T04:37:33;12.40;94.70
55135;DHT22;41031;44.750;11.308;2023-04-12T04:40:01;12.40;94.70
55135;DHT22;41031;44.750;11.308;2023-04-12T04:42:36;12.40;94.70
55135;DHT22;41031;44.750;11.308;2023-04-12T04:45:06;12.40;94.80
55135;DHT22;41031;44.750;11.308;2023-04-12T04:47:42;12.50;94.80
55135;DHT22;41031;44.750;11.308;2023-04-12T04:50:09;12.50;94.70
55135;DHT22;41031;44.750;11.308;2023-04-12T04:52:38;12.50;94.60
55135;DHT22;41031;44.750;11.308;2023-04-12T04:55:09;12.50;94.60
55135;DHT22;41031;44.750;11.308;2023-04-12T04:57:40;12.50;94.60
55135;DHT22;41031;44.750;11.308;2023-04-12T05:00:07;12.50;94.50
55135;DHT22;41031;44.750;11.308;2023-04-12T05:02:41;12.50;94.50
55135;DHT22;41031;44.750;11.308;2023-04-12T05:05:17;12.60;94.50
55135;DHT22;41031;44.750;11.308;2023-04-12T05:07:45;12.60;94.50
55135;DHT22;41031;44.750;11.308;2023-04-12T05:10:13;12.60;94.40
55135;DHT22;41031;44.750;11.308;2023-04-12T05:12:41;12.70;94.40
55135;DHT22;41031;44.750;11.308;2023-04-12T05:15:09;12.70;94.40
55135;DHT22;41031;44.750;11.308;2023-04-12T05:17:39;12.70;94.40
55135;DHT22;41031;44.750;11.308;2023-04-12T05:20:07;12.80;94.40
55135;DHT22;41031;44.750;11.308;2023-04-12T05:22:37;12.90;94.30
55135;DHT22;41031;44.750;11.308;2023-04-12T05:25:05;12.90;94.20
55135;DHT22;41031;44.750;11.308;2023-04-12T05:27:38;13.00;94.10
55135;DHT22;41031;44.750;11.308;2023-04-12T05:30:07;13.10;94.10
55135;DHT22;41031;44.750;11.308;2023-04-12T05:32:34;13.10;94.10
55135;DHT22;41031;44.750;11.308;2023-04-12T05:35:02;13.20;94.10
55135;DHT22;41031;44.750;11.308;2023-04-12T05:37:29;13.30;94.00
55135;DHT22;41031;44.750;11.308;2023-04-12T05:39:56;13.30;94.00
55135;DHT22;41031;44.750;11.308;2023-04-12T05:42:23;13.30;94.30
55135;DHT22;41031;44.750;11.308;2023-04-12T05:44:51;13.40;94.10
55135;DHT22;41031;44.750;11.308;2023-04-12T05:47:20;13.50;94.10
55135;DHT22;41031;44.750;11.308;2023-04-12T05:49:47;13.60;94.10
55135;DHT22;41031;44.750;11.308;2023-04-12T05:52:18;13.80;94.00
55135;DHT22;41031;44.750;11.308;2023-04-12T05:54:45;14.00;93.70
55135;DHT22;41031;44.750;11.308;2023-04-12T05:57:15;14.00;93.40
55135;DHT22;41031;44.750;11.308;2023-04-12T05:59:46;14.10;93.00
55135;DHT22;41031;44.750;11.308;2023-04-12T06:02:13;14.20;92.90
55135;DHT22;41031;44.750;11.308;2023-04-12T06:04:40;14.20;92.90
55135;DHT22;41031;44.750;11.308;2023-04-12T06:07:17;14.30;92.90
55135;DHT22;41031;44.750;11.308;2023-04-12T06:09:45;14.50;92.70
55135;DHT22;41031;44.750;11.308;2023-04-12T06:12:14;14.60;92.50
55135;DHT22;41031;44.750;11.308;2023-04-12T06:14:41;14.80;91.80
55135;DHT22;41031;44.750;11.308;2023-04-12T06:17:08;14.80;91.70
55135;DHT22;41031;44.750;11.308;2023-04-12T06:19:35;14.80;91.40
55135;DHT22;41031;44.750;11.308;2023-04-12T06:22:02;14.90;91.50
55135;DHT22;41031;44.750;11.308;2023-04-12T06:24:30;14.90;91.70
55135;DHT22;41031;44.750;11.308;2023-04-12T06:26:57;15.00;91.70
55135;DHT22;41031;44.750;11.308;2023-04-12T06:29:24;15.10;91.30
55135;DHT22;41031;44.750;11.308;2023-04-12T06:31:52;15.10;91.20
55135;DHT22;41031;44.750;11.308;2023-04-12T06:34:23;15.10;91.20
55135;DHT22;41031;44.750;11.308;2023-04-12T06:36:56;15.10;91.20
55135;DHT22;41031;44.750;11.308;2023-04-12T06:39:23;15.20;91.30
55135;DHT22;41031;44.750;11.308;2023-04-12T06:41:50;15.20;91.20
55135;DHT22;41031;44.750;11.308;2023-04-12T06:44:20;15.20;91.30
55135;DHT22;41031;44.750;11.308;2023-04-12T06:46:47;15.30;91.40
55135;DHT22;41031;44.750;11.308;2023-04-12T06:49:14;15.30;91.50
55135;DHT22;41031;44.750;11.308;2023-04-12T06:51:41;15.40;91.60
55135;DHT22;41031;44.750;11.308;2023-04-12T06:54:08;15.50;91.60
55135;DHT22;41031;44.750;11.308;2023-04-12T06:56:38;15.70;91.50
55135;DHT22;41031;44.750;11.308;2023-04-12T06:59:05;15.80;91.10
55135;DHT22;41031;44.750;11.308;2023-04-12T07:01:32;15.90;90.80
55135;DHT22;41031;44.750;11.308;2023-04-12T07:03:59;16.00;90.40
55135;DHT22;41031;44.750;11.308;2023-04-12T07:06:26;16.10;90.50
55135;DHT22;41031;44.750;11.308;2023-04-12T07:08:54;16.20;90.20
55135;DHT22;41031;44.750;11.308;2023-04-12T07:11:21;16.30;90.20
55135;DHT22;41031;44.750;11.308;2023-04-12T07:13:49;16.40;89.80
55135;DHT22;41031;44.750;11.308;2023-04-12T07:16:17;16.50;89.90
55135;DHT22;41031;44.750;11.308;2023-04-12T07:18:44;16.60;90.20
55135;DHT22;41031;44.750;11.308;2023-04-12T07:21:11;16.80;90.00
55135;DHT22;41031;44.750;11.308;2023-04-12T07:23:43;16.90;89.80
55135;DHT22;41031;44.750;11.308;2023-04-12T07:26:10;16.90;89.10
55135;DHT22;41031;44.750;11.308;2023-04-12T07:28:37;17.00;87.10
55135;DHT22;41031;44.750;11.308;2023-04-12T07:31:05;16.90;87.00
55135;DHT22;41031;44.750;11.308;2023-04-12T07:33:33;16.90;87.00
55135;DHT22;41031;44.750;11.308;2023-04-12T07:36:06;16.90;86.60
55135;DHT22;41031;44.750;11.308;2023-04-12T07:38:33;16.80;87.30
55135;DHT22;41031;44.750;11.308;2023-04-12T07:41:01;16.80;87.00
55135;DHT22;41031;44.750;11.308;2023-04-12T07:43:28;16.80;86.60
55135;DHT22;41031;44.750;11.308;2023-04-12T07:45:55;16.80;87.20
55135;DHT22;41031;44.750;11.308;2023-04-12T07:48:23;16.80;87.90
55135;DHT22;41031;44.750;11.308;2023-04-12T07:50:50;16.80;87.90
55135;DHT22;41031;44.750;11.308;2023-04-12T07:53:25;16.80;87.20
55135;DHT22;41031;44.750;11.308;2023-04-12T07:55:54;16.80;87.30
55135;DHT22;41031;44.750;11.308;2023-04-12T07:58:23;16.80;87.00
55135;DHT22;41031;44.750;11.308;2023-04-12T08:00:51;16.80;87.20
55135;DHT22;41031;44.750;11.308;2023-04-12T08:03:19;16.80;87.00
55135;DHT22;41031;44.750;11.308;2023-04-12T08:05:46;16.70;87.20
55135;DHT22;41031;44.750;11.308;2023-04-12T08:08:19;16.70;87.60
55135;DHT22;41031;44.750;11.308;2023-04-12T08:10:48;16.70;87.20
55135;DHT22;41031;44.750;11.308;2023-04-12T08:13:15;16.70;87.50
55135;DHT22;41031;44.750;11.308;2023-04-12T08:15:42;16.70;87.40
55135;DHT22;41031;44.750;11.308;2023-04-12T08:18:09;16.70;86.60
55135;DHT22;41031;44.750;11.308;2023-04-12T08:20:37;16.70;86.60
55135;DHT22;41031;44.750;11.308;2023-04-12T08:23:06;16.70;86.90
55135;DHT22;41031;44.750;11.308;2023-04-12T08:25:33;16.70;86.90
55135;DHT22;41031;44.750;11.308;2023-04-12T08:28:00;16.70;85.50
55135;DHT22;41031;44.750;11.308;2023-04-12T08:30:27;16.70;86.20
55135;DHT22;41031;44.750;11.308;2023-04-12T08:32:54;16.70;86.70
55135;DHT22;41031;44.750;11.308;2023-04-12T08:35:22;16.70;86.90
55135;DHT22;41031;44.750;11.308;2023-04-12T08:37:49;16.80;86.60
55135;DHT22;41031;44.750;11.308;2023-04-12T08:40:17;16.80;86.30
55135;DHT22;41031;44.750;11.308;2023-04-12T08:42:44;16.90;85.90
55135;DHT22;41031;44.750;11.308;2023-04-12T08:45:12;16.90;86.10
55135;DHT22;41031;44.750;11.308;2023-04-12T08:47:41;17.00;86.00
55135;DHT22;41031;44.750;11.308;2023-04-12T08:50:11;17.10;86.40
55135;DHT22;41031;44.750;11.308;2023-04-12T08:52:42;17.20;86.20
55135;DHT22;41031;44.750;11.308;2023-04-12T08:55:09;17.20;85.60
55135;DHT22;41031;44.750;11.308;2023-04-12T08:57:40;17.30;85.20
55135;DHT22;41031;44.750;11.308;2023-04-12T09:00:08;17.30;85.00
55135;DHT22;41031;44.750;11.308;2023-04-12T09:02:36;17.30;84.60
55135;DHT22;41031;44.750;11.308;2023-04-12T09:05:04;17.30;84.50
55135;DHT22;41031;44.750;11.308;2023-04-12T09:07:32;17.30;84.20
55135;DHT22;41031;44.750;11.308;2023-04-12T09:10:00;17.40;84.30
55135;DHT22;41031;44.750;11.308;2023-04-12T09:12:27;17.40;84.70
55135;DHT22;41031;44.750;11.308;2023-04-12T09:15:11;17.40;84.40
55135;DHT22;41031;44.750;11.308;2023-04-12T09:17:40;17.50;83.90
55135;DHT22;41031;44.750;11.308;2023-04-12T09:22:38;17.60;83.20
55135;DHT22;41031;44.750;11.308;2023-04-12T09:25:11;17.70;83.70
55135;DHT22;41031;44.750;11.308;2023-04-12T09:28:17;17.80;83.40
55135;DHT22;41031;44.750;11.308;2023-04-12T09:30:45;18.00;82.00
55135;DHT22;41031;44.750;11.308;2023-04-12T09:33:21;18.10;82.00
55135;DHT22;41031;44.750;11.308;2023-04-12T09:35:49;18.30;82.00
55135;DHT22;41031;44.750;11.308;2023-04-12T09:38:17;18.40;81.00
55135;DHT22;41031;44.750;11.308;2023-04-12T09:40:44;18.60;79.60
55135;DHT22;41031;44.750;11.308;2023-04-12T09:43:11;18.70;79.60
55135;DHT22;41031;44.750;11.308;2023-04-12T09:45:38;18.80;77.90
55135;DHT22;41031;44.750;11.308;2023-04-12T09:48:06;18.90;78.50
55135;DHT22;41031;44.750;11.308;2023-04-12T09:50:34;19.00;79.20
55135;DHT22;41031;44.750;11.308;2023-04-12T09:53:02;19.20;78.20
55135;DHT22;41031;44.750;11.308;2023-04-12T09:55:30;19.30;78.10
55135;DHT22;41031;44.750;11.308;2023-04-12T09:58:01;19.40;78.00
55135;DHT22;41031;44.750;11.308;2023-04-12T10:00:30;19.50;77.50
55135;DHT22;41031;44.750;11.308;2023-04-12T10:03:00;19.60;76.70
55135;DHT22;41031;44.750;11.308;2023-04-12T10:05:27;19.60;75.80
55135;DHT22;41031;44.750;11.308;2023-04-12T10:07:58;19.70;75.90
55135;DHT22;41031;44.750;11.308;2023-04-12T10:10:28;19.70;74.90
55135;DHT22;41031;44.750;11.308;2023-04-12T10:12:56;19.60;74.10
55135;DHT22;41031;44.750;11.308;2023-04-12T10:15:24;19.50;74.30
55135;DHT22;41031;44.750;11.308;2023-04-12T10:17:57;19.40;75.00
55135;DHT22;41031;44.750;11.308;2023-04-12T10:20:24;19.40;75.20
55135;DHT22;41031;44.750;11.308;2023-04-12T10:22:55;19.40;75.30
55135;DHT22;41031;44.750;11.308;2023-04-12T10:25:25;19.30;75.70
55135;DHT22;41031;44.750;11.308;2023-04-12T10:27:53;19.40;76.40
55135;DHT22;41031;44.750;11.308;2023-04-12T10:30:21;19.40;76.00
55135;DHT22;41031;44.750;11.308;2023-04-12T10:38:23;19.70;74.30
55135;DHT22;41031;44.750;11.308;2023-04-12T10:43:40;20.00;74.90
55135;DHT22;41031;44.750;11.308;2023-04-12T10:46:07;20.10;72.50
55135;DHT22;41031;44.750;11.308;2023-04-12T10:48:36;20.10;72.90
55135;DHT22;41031;44.750;11.308;2023-04-12T10:51:23;20.20;73.30
55135;DHT22;41031;44.750;11.308;2023-04-12T10:56:38;20.50;71.80
55135;DHT22;41031;44.750;11.308;2023-04-12T10:59:12;20.60;72.10
55135;DHT22;41031;44.750;11.308;2023-04-12T11:02:12;20.70;72.10
55135;DHT22;41031;44.750;11.308;2023-04-12T11:07:52;20.90;71.50
55135;DHT22;41031;44.750;11.308;2023-04-12T11:10:39;21.00;71.10
55135;DHT22;41031;44.750;11.308;2023-04-12T11:13:13;21.00;71.10
55135;DHT22;41031;44.750;11.308;2023-04-12T11:15:42;20.90;70.30
55135;DHT22;41031;44.750;11.308;2023-04-12T11:18:12;20.80;71.40
55135;DHT22;41031;44.750;11.308;2023-04-12T11:20:39;20.80;71.60
55135;DHT22;41031;44.750;11.308;2023-04-12T11:23:07;20.80;70.50
55135;DHT22;41031;44.750;11.308;2023-04-12T11:25:37;20.70;71.60
55135;DHT22;41031;44.750;11.308;2023-04-12T11:28:04;20.70;70.80
55135;DHT22;41031;44.750;11.308;2023-04-12T11:30:56;20.60;72.00
55135;DHT22;41031;44.750;11.308;2023-04-12T11:33:37;20.60;72.40
55135;DHT22;41031;44.750;11.308;2023-04-12T11:36:13;20.70;72.10
55135;DHT22;41031;44.750;11.308;2023-04-12T11:38:42;20.70;70.80
55135;DHT22;41031;44.750;11.308;2023-04-12T11:41:13;20.60;70.90
55135;DHT22;41031;44.750;11.308;2023-04-12T11:43:40;20.60;71.60
55135;DHT22;41031;44.750;11.308;2023-04-12T11:46:08;20.60;72.70
55135;DHT22;41031;44.750;11.308;2023-04-12T11:48:35;20.70;72.60
55135;DHT22;41031;44.750;11.308;2023-04-12T11:51:20;20.80;72.10
55135;DHT22;41031;44.750;11.308;2023-04-12T11:53:54;20.90;72.20
55135;DHT22;41031;44.750;11.308;2023-04-12T11:56:23;20.90;69.40
55135;DHT22;41031;44.750;11.308;2023-04-12T11:58:50;20.90;70.10
55135;DHT22;41031;44.750;11.308;2023-04-12T12:01:21;20.90;71.00
55135;DHT22;41031;44.750;11.308;2023-04-12T12:03:49;21.00;71.70
55135;DHT22;41031;44.750;11.308;2023-04-12T12:06:17;21.00;71.40
55135;DHT22;41031;44.750;11.308;2023-04-12T12:08:45;21.10;71.10
55135;DHT22;41031;44.750;11.308;2023-04-12T12:11:12;21.20;70.50
55135;DHT22;41031;44.750;11.308;2023-04-12T12:13:46;21.30;69.50
55135;DHT22;41031;44.750;11.308;2023-04-12T12:16:14;21.40;69.20
55135;DHT22;41031;44.750;11.308;2023-04-12T12:18:42;21.40;67.50
55135;DHT22;41031;44.750;11.308;2023-04-12T12:21:11;21.40;68.80
55135;DHT22;41031;44.750;11.308;2023-04-12T12:23:42;21.50;70.00
55135;DHT22;41031;44.750;11.308;2023-04-12T12:26:09;21.50;67.80
55135;DHT22;41031;44.750;11.308;2023-04-12T12:28:52;21.50;67.50
55135;DHT22;41031;44.750;11.308;2023-04-12T12:31:21;21.50;68.00
55135;DHT22;41031;44.750;11.308;2023-04-12T12:33:57;21.50;68.00
55135;DHT22;41031;44.750;11.308;2023-04-12T12:36:31;21.50;67.60
55135;DHT22;41031;44.750;11.308;2023-04-12T12:41:32;21.50;66.30
55135;DHT22;41031;44.750;11.308;2023-04-12T12:44:00;21.40;67.10
55135;DHT22;41031;44.750;11.308;2023-04-12T12:46:27;21.40;68.30
55135;DHT22;41031;44.750;11.308;2023-04-12T12:49:14;21.50;66.50
55135;DHT22;41031;44.750;11.308;2023-04-12T12:51:41;21.60;66.20
55135;DHT22;41031;44.750;11.308;2023-04-12T12:54:09;21.70;66.50
55135;DHT22;41031;44.750;11.308;2023-04-12T12:56:35;21.70;66.90
55135;DHT22;41031;44.750;11.308;2023-04-12T12:59:02;21.70;66.30
55135;DHT22;41031;44.750;11.308;2023-04-12T13:01:29;21.70;66.10
55135;DHT22;41031;44.750;11.308;2023-04-12T13:03:57;21.80;66.40
55135;DHT22;41031;44.750;11.308;2023-04-12T13:06:25;21.90;67.00
55135;DHT22;41031;44.750;11.308;2023-04-12T13:08:53;22.00;66.20
55135;DHT22;41031;44.750;11.308;2023-04-12T13:11:21;22.00;66.50
55135;DHT22;41031;44.750;11.308;2023-04-12T13:13:48;22.00;65.50
55135;DHT22;41031;44.750;11.308;2023-04-12T13:16:15;21.90;66.70
55135;DHT22;41031;44.750;11.308;2023-04-12T13:18:42;21.90;67.00
55135;DHT22;41031;44.750;11.308;2023-04-12T13:21:09;21.90;68.40
55135;DHT22;41031;44.750;11.308;2023-04-12T13:23:37;21.90;67.90
55135;DHT22;41031;44.750;11.308;2023-04-12T13:26:04;21.80;68.30
55135;DHT22;41031;44.750;11.308;2023-04-12T13:28:31;21.70;66.80
55135;DHT22;41031;44.750;11.308;2023-04-12T13:30:58;21.60;66.80
55135;DHT22;41031;44.750;11.308;2023-04-12T13:33:25;21.50;66.20
55135;DHT22;41031;44.750;11.308;2023-04-12T13:35:52;21.40;66.90
55135;DHT22;41031;44.750;11.308;2023-04-12T13:38:19;21.20;67.00
55135;DHT22;41031;44.750;11.308;2023-04-12T13:40:46;21.10;67.90
55135;DHT22;41031;44.750;11.308;2023-04-12T13:43:14;21.00;68.10
55135;DHT22;41031;44.750;11.308;2023-04-12T13:45:41;21.00;68.00
55135;DHT22;41031;44.750;11.308;2023-04-12T13:48:08;20.90;68.30
55135;DHT22;41031;44.750;11.308;2023-04-12T13:50:35;20.80;68.40
55135;DHT22;41031;44.750;11.308;2023-04-12T13:53:02;20.80;68.90
55135;DHT22;41031;44.750;11.308;2023-04-12T13:55:29;20.70;69.50
55135;DHT22;41031;44.750;11.308;2023-04-12T13:57:56;20.70;68.20
55135;DHT22;41031;44.750;11.308;2023-04-12T14:00:23;20.60;68.80
55135;DHT22;41031;44.750;11.308;2023-04-12T14:02:50;20.50;69.60
55135;DHT22;41031;44.750;11.308;2023-04-12T14:05:17;20.40;68.90
55135;DHT22;41031;44.750;11.308;2023-04-12T14:07:44;20.40;68.70
55135;DHT22;41031;44.750;11.308;2023-04-12T14:10:13;20.30;69.30
55135;DHT22;41031;44.750;11.308;2023-04-12T14:12:49;20.30;68.90
55135;DHT22;41031;44.750;11.308;2023-04-12T14:15:16;20.30;69.00
55135;DHT22;41031;44.750;11.308;2023-04-12T14:17:44;20.20;69.00
55135;DHT22;41031;44.750;11.308;2023-04-12T14:20:12;20.20;69.70
55135;DHT22;41031;44.750;11.308;2023-04-12T14:22:39;20.30;70.80
55135;DHT22;41031;44.750;11.308;2023-04-12T14:25:06;20.30;69.80
55135;DHT22;41031;44.750;11.308;2023-04-12T14:27:35;20.30;69.40
55135;DHT22;41031;44.750;11.308;2023-04-12T14:30:03;20.30;68.70
55135;DHT22;41031;44.750;11.308;2023-04-12T14:32:31;20.30;68.40
55135;DHT22;41031;44.750;11.308;2023-04-12T14:34:58;20.30;69.50
55135;DHT22;41031;44.750;11.308;2023-04-12T14:37:24;20.20;69.70
55135;DHT22;41031;44.750;11.308;2023-04-12T14:39:53;20.20;70.40
55135;DHT22;41031;44.750;11.308;2023-04-12T14:42:20;20.20;69.70
55135;DHT22;41031;44.750;11.308;2023-04-12T14:44:47;20.10;69.20
55135;DHT22;41031;44.750;11.308;2023-04-12T14:47:14;20.00;69.00
55135;DHT22;41031;44.750;11.308;2023-04-12T14:49:42;19.90;69.40
55135;DHT22;41031;44.750;11.308;2023-04-12T14:52:10;19.80;69.00
55135;DHT22;41031;44.750;11.308;2023-04-12T14:54:38;19.70;68.70
55135;DHT22;41031;44.750;11.308;2023-04-12T14:57:06;19.60;69.80
55135;DHT22;41031;44.750;11.308;2023-04-12T14:59:34;19.50;70.10
55135;DHT22;41031;44.750;11.308;2023-04-12T15:02:05;19.40;70.10
55135;DHT22;41031;44.750;11.308;2023-04-12T15:04:33;19.40;70.40
55135;DHT22;41031;44.750;11.308;2023-04-12T15:07:02;19.30;70.60
55135;DHT22;41031;44.750;11.308;2023-04-12T15:09:29;19.20;70.60
55135;DHT22;41031;44.750;11.308;2023-04-12T15:11:57;19.20;70.60
55135;DHT22;41031;44.750;11.308;2023-04-12T15:14:27;19.10;70.50
55135;DHT22;41031;44.750;11.308;2023-04-12T15:16:56;19.10;70.70
55135;DHT22;41031;44.750;11.308;2023-04-12T15:19:24;19.00;71.10
55135;DHT22;41031;44.750;11.308;2023-04-12T15:21:53;19.00;71.10
55135;DHT22;41031;44.750;11.308;2023-04-12T15:24:24;18.90;71.00
55135;DHT22;41031;44.750;11.308;2023-04-12T15:26:51;18.90;71.20
55135;DHT22;41031;44.750;11.308;2023-04-12T15:29:20;18.90;71.30
55135;DHT22;41031;44.750;11.308;2023-04-12T15:31:54;18.90;71.70
55135;DHT22;41031;44.750;11.308;2023-04-12T15:34:23;18.80;72.30
55135;DHT22;41031;44.750;11.308;2023-04-12T15:36:52;18.80;72.30
55135;DHT22;41031;44.750;11.308;2023-04-12T15:39:20;18.80;72.50
55135;DHT22;41031;44.750;11.308;2023-04-12T15:41:50;18.90;72.70
55135;DHT22;41031;44.750;11.308;2023-04-12T15:44:19;18.90;73.00
55135;DHT22;41031;44.750;11.308;2023-04-12T15:46:48;19.00;73.10
55135;DHT22;41031;44.750;11.308;2023-04-12T15:49:36;19.10;73.70
55135;DHT22;41031;44.750;11.308;2023-04-12T15:52:03;19.20;73.70
55135;DHT22;41031;44.750;11.308;2023-04-12T15:54:31;19.20;73.40
55135;DHT22;41031;44.750;11.308;2023-04-12T15:56:59;19.20;72.30
55135;DHT22;41031;44.750;11.308;2023-04-12T15:59:36;19.10;72.40